createdAt,value
2018-08-19T00:00:56.251Z,8.93
2018-08-19T00:03:26.794Z,8.97
2018-08-19T00:05:57.314Z,8.70
2018-08-19T00:08:27.814Z,8.83
2018-08-19T00:11:09.908Z,8.73
2018-08-19T00:13:40.929Z,8.53
2018-08-19T00:16:12.256Z,9.50
2018-08-19T00:18:42.746Z,9.00
2018-08-19T00:21:13.261Z,9.60
2018-08-19T00:23:49.580Z,9.60
2018-08-19T00:26:20.073Z,9.40
2018-08-19T00:28:50.582Z,9.10
2018-08-19T00:31:20.905Z,9.23
2018-08-19T00:33:51.380Z,9.87
2018-08-19T00:36:31.724Z,9.47
2018-08-19T00:39:02.049Z,9.60
2018-08-19T00:41:32.324Z,9.63
2018-08-19T00:44:02.723Z,8.93
2018-08-19T00:46:35.243Z,10.37
2018-08-19T00:49:07.460Z,9.77
2018-08-19T00:51:46.549Z,10.13
2018-08-19T00:54:20.477Z,9.17
2018-08-19T00:56:53.207Z,10.23
2018-08-19T00:59:23.648Z,10.17
2018-08-19T01:01:54.089Z,9.77
2018-08-19T01:04:24.920Z,9.70
2018-08-19T01:06:56.490Z,10.80
2018-08-19T01:09:30.815Z,10.47
2018-08-19T01:12:01.433Z,9.60
2018-08-19T01:14:31.864Z,10.27
2018-08-19T01:17:02.201Z,10.70
2018-08-19T01:19:32.577Z,11.20
2018-08-19T01:22:02.979Z,10.77
2018-08-19T01:24:33.675Z,10.00
2018-08-19T01:27:04.023Z,9.33
2018-08-19T01:29:39.465Z,10.63
2018-08-19T01:32:12.354Z,9.67
2018-08-19T01:34:45.811Z,9.80
2018-08-19T01:37:16.495Z,10.30
2018-08-19T01:39:46.825Z,10.70
2018-08-19T01:42:17.261Z,10.20
2018-08-19T01:44:47.734Z,10.63
2018-08-19T01:47:18.097Z,10.87
2018-08-19T01:49:48.400Z,10.23
2018-08-19T01:52:18.816Z,11.13
2018-08-19T01:54:49.199Z,10.23
2018-08-19T01:57:19.451Z,10.93
2018-08-19T01:59:49.852Z,10.77
2018-08-19T02:02:20.168Z,9.97
2018-08-19T02:04:56.438Z,10.47
2018-08-19T02:07:27.178Z,9.77
2018-08-19T02:10:04.534Z,10.33
2018-08-19T02:12:39.688Z,10.10
2018-08-19T02:15:11.162Z,10.50
2018-08-19T02:17:46.575Z,11.07
2018-08-19T02:20:17.260Z,10.60
2018-08-19T02:22:52.338Z,10.33
2018-08-19T02:25:22.678Z,11.47
2018-08-19T02:27:52.968Z,10.77
2018-08-19T02:30:23.319Z,11.13
2018-08-19T02:32:56.057Z,10.90
2018-08-19T02:35:26.537Z,11.53
2018-08-19T02:37:56.981Z,11.17
2018-08-19T02:40:32.481Z,11.30
2018-08-19T02:43:02.937Z,11.30
2018-08-19T02:45:33.418Z,10.43
2018-08-19T02:48:03.925Z,11.00
2018-08-19T02:50:34.261Z,11.47
2018-08-19T02:53:04.735Z,11.13
2018-08-19T02:55:35.113Z,11.10
2018-08-19T02:58:10.352Z,11.07
2018-08-19T03:00:40.774Z,10.57
2018-08-19T03:03:11.098Z,10.43
2018-08-19T03:05:45.515Z,10.73
2018-08-19T03:08:15.763Z,11.17
2018-08-19T03:10:46.492Z,10.70
2018-08-19T03:13:16.767Z,11.33
2018-08-19T03:15:47.154Z,10.00
2018-08-19T03:18:17.649Z,10.30
2018-08-19T03:20:47.933Z,11.27
2018-08-19T03:23:18.180Z,9.97
2018-08-19T03:25:48.573Z,10.70
2018-08-19T03:28:18.848Z,10.00
2018-08-19T03:31:04.557Z,10.33
2018-08-19T03:33:34.769Z,10.77
2018-08-19T03:36:05.087Z,11.03
2018-08-19T03:38:35.405Z,11.40
2018-08-19T03:41:05.744Z,10.70
2018-08-19T03:43:36.131Z,10.40
2018-08-19T03:46:11.357Z,10.50
2018-08-19T03:48:41.708Z,10.33
2018-08-19T03:51:14.183Z,9.57
2018-08-19T03:53:45.073Z,10.27
2018-08-19T03:56:20.388Z,10.33
2018-08-19T03:58:51.575Z,9.57
2018-08-19T04:01:40.314Z,10.30
2018-08-19T04:04:11.467Z,10.00
2018-08-19T04:06:41.842Z,9.63
2018-08-19T04:09:12.120Z,10.77
2018-08-19T04:11:42.510Z,10.77
2018-08-19T04:14:28.373Z,10.17
2018-08-19T04:17:01.072Z,9.87
2018-08-19T04:19:31.568Z,10.33
2018-08-19T04:22:04.392Z,9.10
2018-08-19T04:29:30.715Z,9.73
2018-08-19T04:32:01.007Z,10.00
2018-08-19T04:34:31.264Z,9.37
2018-08-19T04:37:01.509Z,9.80
2018-08-19T04:39:31.841Z,9.57
2018-08-19T04:42:02.159Z,9.23
2018-08-19T04:44:32.990Z,9.17
2018-08-19T04:47:21.207Z,9.73
2018-08-19T04:49:52.945Z,9.97
2018-08-19T04:52:24.232Z,9.77
2018-08-19T04:54:55.789Z,9.43
2018-08-19T04:57:26.073Z,10.10
2018-08-19T04:59:56.378Z,8.97
2018-08-19T05:02:26.716Z,9.77
2018-08-19T05:04:57.041Z,9.57
2018-08-19T05:07:27.260Z,8.90
2018-08-19T05:09:57.535Z,9.17
2018-08-19T05:12:27.816Z,10.27
2018-08-19T05:14:58.258Z,9.20
2018-08-19T05:17:28.573Z,9.40
2018-08-19T05:20:18.516Z,8.97
2018-08-19T05:22:48.872Z,9.37
2018-08-19T05:25:19.209Z,9.30
2018-08-19T05:27:57.433Z,8.93
2018-08-19T05:30:28.197Z,9.07
2018-08-19T05:33:03.401Z,8.97
2018-08-19T05:35:34.802Z,9.87
2018-08-19T05:38:05.188Z,9.47
2018-08-19T05:40:35.474Z,8.67
2018-08-19T05:43:05.798Z,8.40
2018-08-19T05:45:41.393Z,8.10
2018-08-19T05:48:13.229Z,9.13
2018-08-19T05:50:43.573Z,9.30
2018-08-19T05:53:13.895Z,8.50
2018-08-19T05:55:44.276Z,9.33
2018-08-19T05:58:14.654Z,8.67
2018-08-19T06:00:48.660Z,8.77
2018-08-19T06:03:18.935Z,8.27
2018-08-19T06:05:49.400Z,9.10
2018-08-19T06:08:19.597Z,8.53
2018-08-19T06:10:49.869Z,7.87
2018-08-19T06:13:20.188Z,7.70
2018-08-19T06:15:50.562Z,7.80
2018-08-19T06:18:20.874Z,7.87
2018-08-19T06:20:51.244Z,7.43
2018-08-19T06:23:23.033Z,7.73
2018-08-19T06:25:53.397Z,8.00
2018-08-19T06:28:23.748Z,7.90
2018-08-19T06:30:54.083Z,7.57
2018-08-19T06:33:24.477Z,7.53
2018-08-19T06:35:54.851Z,7.80
2018-08-19T06:38:25.297Z,7.73
2018-08-19T06:40:55.787Z,7.13
2018-08-19T06:43:26.078Z,7.47
2018-08-19T06:45:56.451Z,6.70
2018-08-19T06:48:26.797Z,7.03
2018-08-19T06:50:57.295Z,7.17
2018-08-19T06:53:30.788Z,7.00
2018-08-19T06:56:01.239Z,6.53
2018-08-19T06:58:31.518Z,6.40
2018-08-19T07:01:01.871Z,6.83
2018-08-19T07:03:32.475Z,5.90
2018-08-19T07:06:11.353Z,5.53
2018-08-19T07:08:41.845Z,5.80
2018-08-19T07:11:12.327Z,6.17
2018-08-19T07:13:42.815Z,5.97
2018-08-19T07:16:13.283Z,5.97
2018-08-19T07:18:43.792Z,5.50
2018-08-19T07:21:14.057Z,6.33
2018-08-19T07:23:44.476Z,5.60
2018-08-19T07:26:14.880Z,5.97
2018-08-19T07:28:45.235Z,5.33
2018-08-19T07:31:15.652Z,5.53
2018-08-19T07:33:45.957Z,5.17
2018-08-19T07:36:16.453Z,5.47
2018-08-19T07:38:46.719Z,5.25
2018-08-19T07:41:17.198Z,5.28
2018-08-19T07:43:47.677Z,5.50
2018-08-19T07:46:18.733Z,5.53
2018-08-19T07:48:50.010Z,4.95
2018-08-19T07:51:23.644Z,4.87
2018-08-19T07:53:53.897Z,4.92
2018-08-19T07:56:24.112Z,5.37
2018-08-19T07:59:24.802Z,5.30
2018-08-19T08:01:55.033Z,4.87
2018-08-19T08:04:33.547Z,5.85
2018-08-19T08:07:03.707Z,4.92
2018-08-19T08:09:33.855Z,5.75
2018-08-19T08:12:04.160Z,5.30
2018-08-19T08:14:35.514Z,4.80
2018-08-19T08:17:08.030Z,5.00
2018-08-19T08:19:41.237Z,5.33
2018-08-19T08:22:15.808Z,5.22
2018-08-19T08:24:46.090Z,5.30
2018-08-19T08:27:16.308Z,5.35
2018-08-19T08:29:46.837Z,5.13
2018-08-19T08:32:17.033Z,4.92
2018-08-19T08:34:47.205Z,4.57
2018-08-19T08:37:17.538Z,4.85
2018-08-19T08:39:49.974Z,5.10
2018-08-19T08:42:20.424Z,4.53
2018-08-19T08:44:50.579Z,5.30
2018-08-19T08:47:20.849Z,4.20
2018-08-19T08:49:51.050Z,4.20
2018-08-19T08:52:24.687Z,4.20
2018-08-19T08:54:59.790Z,3.83
2018-08-19T08:57:30.155Z,3.95
2018-08-19T09:00:00.677Z,4.03
2018-08-19T09:02:41.773Z,4.67
2018-08-19T09:05:13.184Z,4.72
2018-08-19T09:07:43.578Z,5.03
2018-08-19T09:10:15.204Z,4.92
2018-08-19T09:12:54.920Z,5.75
2018-08-19T09:15:25.149Z,4.90
2018-08-19T09:17:55.417Z,4.97
2018-08-19T09:20:25.591Z,5.25
2018-08-19T09:22:55.811Z,5.42
2018-08-19T09:25:26.062Z,4.97
2018-08-19T09:27:56.862Z,5.33
2018-08-19T09:30:42.337Z,5.22
2018-08-19T09:33:13.447Z,5.20
2018-08-19T09:35:44.266Z,4.67
2018-08-19T09:38:21.165Z,4.67
2018-08-19T09:40:51.437Z,5.60
2018-08-19T09:43:21.621Z,5.62
2018-08-19T09:45:51.839Z,5.62
2018-08-19T09:48:22.179Z,4.67
2018-08-19T09:50:53.594Z,5.90
2018-08-19T09:53:24.160Z,5.10
2018-08-19T09:55:59.628Z,5.33
2018-08-19T09:58:29.901Z,5.72
2018-08-19T10:01:05.251Z,5.45
2018-08-19T10:03:35.493Z,5.67
2018-08-19T10:06:06.178Z,5.67
2018-08-19T10:08:36.681Z,5.85
2018-08-19T10:11:08.741Z,6.40
2018-08-19T10:13:38.915Z,6.70
2018-08-19T10:16:09.055Z,6.67
2018-08-19T10:18:39.433Z,6.03
2018-08-19T10:21:14.017Z,6.17
2018-08-19T10:23:44.204Z,6.70
2018-08-19T10:26:14.514Z,6.45
2018-08-19T10:28:44.622Z,6.15
2018-08-19T10:31:19.452Z,5.70
2018-08-19T10:33:52.657Z,6.10
2018-08-19T10:36:22.848Z,6.28
2018-08-19T10:38:53.075Z,5.85
2018-08-19T10:41:24.130Z,5.40
2018-08-19T10:43:54.485Z,6.58
2018-08-19T10:46:24.690Z,6.50
2018-08-19T10:48:54.878Z,6.22
2018-08-19T10:51:25.095Z,6.47
2018-08-19T10:53:55.253Z,6.12
2018-08-19T10:56:27.049Z,6.53
2018-08-19T10:58:59.611Z,6.40
2018-08-19T11:01:30.235Z,7.00
2018-08-19T11:04:00.650Z,6.75
2018-08-19T11:06:31.086Z,6.62
2018-08-19T11:09:01.312Z,6.95
2018-08-19T11:11:34.155Z,7.60
2018-08-19T11:14:10.309Z,7.42
2018-08-19T11:16:40.514Z,7.62
2018-08-19T11:19:10.750Z,7.60
2018-08-19T11:21:41.313Z,6.70
2018-08-19T11:24:19.318Z,7.50
2018-08-19T11:26:54.741Z,6.78
2018-08-19T11:29:24.981Z,7.72
2018-08-19T11:31:55.210Z,6.45
2018-08-19T11:34:25.338Z,7.10
2018-08-19T11:36:55.621Z,6.83
2018-08-19T11:39:31.809Z,7.60
2018-08-19T11:42:01.983Z,7.55
2018-08-19T11:44:35.715Z,7.72
2018-08-19T11:47:05.929Z,7.28
2018-08-19T11:49:36.191Z,8.28
2018-08-19T11:52:06.468Z,8.05
2018-08-19T11:54:36.649Z,8.18
2018-08-19T11:57:10.094Z,7.78
2018-08-19T11:59:42.462Z,7.70
2018-08-19T12:02:15.987Z,7.17
2018-08-19T12:04:46.475Z,6.80
2018-08-19T12:07:17.160Z,7.42
2018-08-19T12:09:54.866Z,7.20
2018-08-19T12:12:55.775Z,7.97
2018-08-19T12:15:26.029Z,7.55
2018-08-19T12:17:56.260Z,7.03
2018-08-19T12:20:34.491Z,7.87
2018-08-19T12:23:04.740Z,7.17
2018-08-19T12:25:35.095Z,7.53
2018-08-19T12:28:05.367Z,7.37
2018-08-19T12:30:35.550Z,7.15
2018-08-19T12:33:22.737Z,6.45
2018-08-19T12:35:56.474Z,6.37
2018-08-19T12:38:27.032Z,6.92
2018-08-19T12:40:57.325Z,6.70
2018-08-19T12:43:27.551Z,6.58
2018-08-19T12:45:58.596Z,6.10
2018-08-19T12:48:28.857Z,6.42
2018-08-19T12:51:05.869Z,7.10
2018-08-19T12:53:42.548Z,6.15
2018-08-19T12:56:13.896Z,5.92
2018-08-19T12:58:44.052Z,5.97
2018-08-19T13:01:14.281Z,6.33
2018-08-19T13:03:44.539Z,6.00
2018-08-19T13:06:14.760Z,7.45
2018-08-19T13:08:44.952Z,6.45
2018-08-19T13:11:15.058Z,6.25
2018-08-19T13:13:45.904Z,7.12
2018-08-19T13:16:16.050Z,7.05
2018-08-19T13:18:46.151Z,5.87
2018-08-19T13:21:19.217Z,6.17
2018-08-19T13:23:49.333Z,6.22
2018-08-19T13:26:19.556Z,6.47
2018-08-19T13:28:52.643Z,6.25
2018-08-19T13:31:27.197Z,6.85
2018-08-19T13:33:57.360Z,6.53
2018-08-19T13:36:27.540Z,6.42
2018-08-19T13:38:57.732Z,6.05
2018-08-19T13:41:27.848Z,6.25
2018-08-19T13:43:58.003Z,6.35
2018-08-19T13:46:28.139Z,6.15
2018-08-19T13:48:58.343Z,6.60
2018-08-19T13:51:28.569Z,6.22
2018-08-19T13:53:59.590Z,5.85
2018-08-19T13:56:30.162Z,6.75
2018-08-19T13:59:01.409Z,5.67
2018-08-19T14:01:31.567Z,6.28
2018-08-19T14:04:01.742Z,5.55
2018-08-19T14:06:31.960Z,6.37
2018-08-19T14:09:02.112Z,5.20
2018-08-19T14:11:32.316Z,5.78
2018-08-19T14:14:02.429Z,6.40
2018-08-19T14:16:33.271Z,5.83
2018-08-19T14:19:03.401Z,6.05
2018-08-19T14:21:33.657Z,5.85
2018-08-19T14:24:04.309Z,6.08
2018-08-19T14:26:35.845Z,5.78
2018-08-19T14:29:06.175Z,5.97
2018-08-19T14:31:36.406Z,6.45
2018-08-19T14:34:06.580Z,6.55
2018-08-19T14:36:36.774Z,5.65
2018-08-19T14:39:08.043Z,5.83
2018-08-19T14:41:38.278Z,6.25
2018-08-19T14:44:08.592Z,5.53
2018-08-19T14:46:39.490Z,5.33
2018-08-19T14:49:17.135Z,6.17
2018-08-19T14:51:57.500Z,5.97
2018-08-19T14:54:31.550Z,5.80
2018-08-19T14:57:01.797Z,5.70
2018-08-19T14:59:31.891Z,6.45
2018-08-19T15:02:02.242Z,5.72
2018-08-19T15:04:32.574Z,6.05
2018-08-19T15:07:02.756Z,6.40
2018-08-19T15:09:33.881Z,6.10
2018-08-19T15:12:11.957Z,5.58
2018-08-19T15:14:42.243Z,5.97
2018-08-19T15:17:12.821Z,6.37
2018-08-19T15:19:47.624Z,5.73
2018-08-19T15:22:18.019Z,5.85
2018-08-19T15:24:48.212Z,6.12
2018-08-19T15:27:18.539Z,6.72
2018-08-19T15:29:52.865Z,5.90
2018-08-19T15:32:25.546Z,5.83
2018-08-19T15:35:00.025Z,6.05
2018-08-19T15:37:30.158Z,5.90
2018-08-19T15:40:00.289Z,6.03
2018-08-19T15:42:30.352Z,6.17
2018-08-19T15:45:00.428Z,6.15
2018-08-19T15:47:30.615Z,6.37
2018-08-19T15:50:13.573Z,5.90
2018-08-19T15:52:43.780Z,5.97
2018-08-19T15:55:14.195Z,6.08
2018-08-19T15:57:44.357Z,5.58
2018-08-19T16:00:14.511Z,6.35
2018-08-19T16:02:44.664Z,6.12
2018-08-19T16:05:17.772Z,6.45
2018-08-19T16:07:48.067Z,5.87
2018-08-19T16:10:18.218Z,5.80
2018-08-19T16:12:51.179Z,5.83
2018-08-19T16:15:28.194Z,6.42
2018-08-19T16:17:59.025Z,6.17
2018-08-19T16:20:29.094Z,6.53
2018-08-19T16:22:59.275Z,5.92
2018-08-19T16:25:29.421Z,6.25
2018-08-19T16:27:59.472Z,6.90
2018-08-19T16:30:29.854Z,6.00
2018-08-19T16:32:59.925Z,6.20
2018-08-19T16:35:30.069Z,6.15
2018-08-19T16:38:00.218Z,6.67
2018-08-19T16:40:30.333Z,6.83
2018-08-19T16:43:00.449Z,6.50
2018-08-19T16:45:30.572Z,6.22
2018-08-19T16:48:00.698Z,6.20
2018-08-19T16:50:31.082Z,6.60
2018-08-19T16:53:01.140Z,6.75
2018-08-19T16:55:31.311Z,6.30
2018-08-19T16:58:01.539Z,6.10
2018-08-19T17:00:32.120Z,6.20
2018-08-19T17:03:06.885Z,6.30
2018-08-19T17:05:37.097Z,6.25
2018-08-19T17:08:07.706Z,6.12
2018-08-19T17:10:37.834Z,6.12
2018-08-19T17:13:07.897Z,7.45
2018-08-19T17:15:38.101Z,5.87
2018-08-19T17:18:08.516Z,6.33
2018-08-19T17:20:38.700Z,6.83
2018-08-19T17:23:08.861Z,6.60
2018-08-19T17:25:38.910Z,5.97
2018-08-19T17:28:16.031Z,6.65
2018-08-19T17:30:46.139Z,5.92
2018-08-19T17:33:16.259Z,5.95
2018-08-19T17:35:48.137Z,5.78
2018-08-19T17:38:18.506Z,5.87
2018-08-19T17:40:48.650Z,6.00
2018-08-19T17:43:18.889Z,5.80
2018-08-19T17:45:50.381Z,6.20
2018-08-19T17:48:20.341Z,5.70
2018-08-19T17:50:50.432Z,5.70
2018-08-19T17:53:20.621Z,6.10
2018-08-19T17:55:50.683Z,5.83
2018-08-19T17:58:20.846Z,5.62
2018-08-19T18:00:50.972Z,6.08
2018-08-19T18:03:21.034Z,5.65
2018-08-19T18:05:51.182Z,5.50
2018-08-19T18:08:21.293Z,6.00
2018-08-19T18:10:58.046Z,6.25
2018-08-19T18:13:29.809Z,6.45
2018-08-19T18:15:59.926Z,6.20
2018-08-19T18:18:30.078Z,6.05
2018-08-19T18:21:02.148Z,5.85
2018-08-19T18:23:32.294Z,6.03
2018-08-19T18:26:02.473Z,5.55
2018-08-19T18:28:33.208Z,5.47
2018-08-19T18:33:55.394Z,5.40
2018-08-19T18:36:33.759Z,5.40
2018-08-19T18:39:05.828Z,5.72
2018-08-19T18:41:37.391Z,5.80
2018-08-19T18:44:08.858Z,5.75
2018-08-19T18:46:39.062Z,5.53
2018-08-19T18:49:13.085Z,5.12
2018-08-19T18:51:50.823Z,6.03
2018-08-19T18:54:32.634Z,5.28
2018-08-19T18:57:08.160Z,5.70
2018-08-19T18:59:43.738Z,5.17
2018-08-19T19:02:13.953Z,5.40
2018-08-19T19:07:44.566Z,5.10
2018-08-19T19:10:14.683Z,5.25
2018-08-19T19:12:44.817Z,4.75
2018-08-19T19:15:15.193Z,5.00
2018-08-19T19:17:45.975Z,5.50
2018-08-19T19:20:16.279Z,5.03
2018-08-19T19:23:04.298Z,5.62
2018-08-19T19:25:39.329Z,5.80
2018-08-19T19:28:09.626Z,5.97
2018-08-19T19:30:39.832Z,4.55
2018-08-19T19:33:12.193Z,4.78
2018-08-19T19:35:42.571Z,5.58
2018-08-19T19:38:12.811Z,5.25
2018-08-19T19:40:43.424Z,5.20
2018-08-19T19:43:14.631Z,5.17
2018-08-19T19:45:49.994Z,4.75
2018-08-19T19:48:26.198Z,5.65
2018-08-19T19:50:56.811Z,5.45
2018-08-19T19:53:27.655Z,5.78
2018-08-19T19:56:20.049Z,5.83
2018-08-19T19:58:53.532Z,5.62
2018-08-19T20:01:25.428Z,6.37
2018-08-19T20:03:57.250Z,5.62
2018-08-19T20:06:30.037Z,5.20
2018-08-19T20:09:04.210Z,5.70
2018-08-19T20:11:35.408Z,5.20
2018-08-19T20:14:06.221Z,5.30
2018-08-19T20:16:40.050Z,5.12
2018-08-19T20:19:21.026Z,4.95
2018-08-19T20:21:53.213Z,4.90
2018-08-19T20:24:23.440Z,5.65
2018-08-19T20:26:55.628Z,5.10
2018-08-19T20:29:25.858Z,5.47
2018-08-19T20:31:56.180Z,5.30
2018-08-19T20:34:26.897Z,4.90
2018-08-19T20:36:57.218Z,4.85
2018-08-19T20:39:35.897Z,5.30
2018-08-19T20:42:06.711Z,5.50
2018-08-19T20:44:41.412Z,5.60
2018-08-19T20:47:20.149Z,5.33
2018-08-19T20:49:58.972Z,5.20
2018-08-19T20:52:49.139Z,4.92
2018-08-19T20:55:27.943Z,5.12
2018-08-19T20:58:05.781Z,5.53
2018-08-19T21:00:44.577Z,5.47
2018-08-19T21:03:14.954Z,5.17
2018-08-19T21:05:45.209Z,4.72
2018-08-19T21:08:17.877Z,6.37
2018-08-19T21:10:57.012Z,7.12
2018-08-19T21:13:27.839Z,6.75
2018-08-19T21:15:59.115Z,7.20
2018-08-19T21:18:30.466Z,7.40
2018-08-19T21:21:00.866Z,7.12
2018-08-19T21:23:31.202Z,7.20
2018-08-19T21:26:05.979Z,7.40
2018-08-19T21:28:43.029Z,6.90
2018-08-19T21:31:21.799Z,6.83
2018-08-19T21:33:52.459Z,7.20
2018-08-19T21:36:22.644Z,7.78
2018-08-19T21:38:52.980Z,7.05
2018-08-19T21:41:23.912Z,7.47
2018-08-19T21:43:54.284Z,7.58
2018-08-19T21:46:24.614Z,7.28
2018-08-19T21:48:55.555Z,7.08
2018-08-19T21:51:26.018Z,7.05
2018-08-19T21:53:56.319Z,6.78
2018-08-19T21:56:26.613Z,7.20
2018-08-19T21:58:56.908Z,7.08
2018-08-19T22:01:32.100Z,7.25
2018-08-19T22:04:02.460Z,7.58
2018-08-19T22:06:32.692Z,7.60
2018-08-19T22:09:03.555Z,7.20
2018-08-19T22:11:34.930Z,7.78
2018-08-19T22:14:05.385Z,7.72
2018-08-19T22:16:35.539Z,7.75
2018-08-19T22:19:05.776Z,7.90
2018-08-19T22:21:36.011Z,7.70
2018-08-19T22:24:07.201Z,7.28
2018-08-19T22:26:37.673Z,7.40
2018-08-19T22:29:16.058Z,8.15
2018-08-19T22:31:46.405Z,7.97
2018-08-19T22:34:17.096Z,7.83
2018-08-19T22:36:47.345Z,7.95
2018-08-19T22:39:20.506Z,7.78
2018-08-19T22:41:52.400Z,8.38
2018-08-19T22:44:23.551Z,8.18
2018-08-19T22:46:53.788Z,8.00
2018-08-19T22:49:27.015Z,7.95
2018-08-19T22:52:18.165Z,8.10
2018-08-19T22:54:48.998Z,8.33
2018-08-19T22:57:19.178Z,8.08
2018-08-19T22:59:49.398Z,8.53
2018-08-19T23:02:19.691Z,7.75
2018-08-19T23:04:51.690Z,7.93
2018-08-19T23:07:21.839Z,7.90
2018-08-19T23:09:51.978Z,8.07
2018-08-19T23:12:22.526Z,8.40
2018-08-19T23:15:08.961Z,9.20
2018-08-19T23:17:39.153Z,8.38
2018-08-19T23:20:09.413Z,8.78
2018-08-19T23:22:39.599Z,7.83
2018-08-19T23:25:09.874Z,9.08
2018-08-19T23:27:40.473Z,8.40
2018-08-19T23:30:10.952Z,8.10
2018-08-19T23:32:41.447Z,8.35
2018-08-19T23:35:11.773Z,8.23
2018-08-19T23:37:42.376Z,8.05
2018-08-19T23:40:13.325Z,8.48
2018-08-19T23:42:43.543Z,8.58
2018-08-19T23:45:18.177Z,8.68
2018-08-19T23:47:55.447Z,8.60
2018-08-19T23:50:26.153Z,8.53
2018-08-19T23:52:56.793Z,7.50
2018-08-19T23:55:27.219Z,8.05
2018-08-19T23:57:57.432Z,7.50
